Alpine, NJ

12:03 AM EST on December 11, 2016 (GMT -0500)
Cresskill NJ | | Change Station

Elev 49 ft 40.95 °N, 73.96 °W | Updated 31 seconds ago

Clear
Clear
22.1 °F
Feels Like 22 °F
N
0.0
Wind Variable Wind from South

Today
High -- | Low -- °F
--% Chance of Precip.
Yesterday
High -- | Low -- °F
Precip. -- in
Pressure 30.46 in
Visibility 10.0 miles
Clouds Clear
Windchill 22 °F
Dew Point 20 °F
Humidity 91%
Rainfall 0.00 in
Snow Depth Not available.
7:10 AM 4:27 PM
Waxing Gibbous, 89% visible
METAR KTEB 110451Z 00000KT 10SM CLR M03/M09 A3046 RMK AO2 SLP313 T10281089 400171039
Pressure 30.46 in
Visibility 10.0 miles
Clouds Clear
Windchill 22 °F
Dew Point 20 °F
Humidity 91%
Rainfall 0.00 in
Snow Depth Not available.
7:10 AM 4:27 PM
Waxing Gibbous, 89% visible
METAR KTEB 110451Z 00000KT 10SM CLR M03/M09 A3046 RMK AO2 SLP313 T10281089 400171039

10-Day Weather Forecast

Almanac

Astronomy

Dec. 11, 2016 Rise Set
Actual Time
Civil Twilight
Nautical Twilight
Astronomical Twilight
Moon
Length of Visible Light
Length of Day
Tomorrow will be .
, % of the Moon is Illuminated

Today's Extremes

State Highs State Lows

Community

WunderPhotos

Upload Photos

1,956,705 photos uploaded!

WunderBlog® & News

Nearby

Air Quality

  Air Quality AQ Index Pollutant
Not available.

Snow Depth

Station Depth Elevation

Earthquake Activity

City Distance Mag. Time & Date
Minimum magnitude displayed is 2.5.

Coastal Water Temperatures

Place Temperature

Stations

Nearby Weather Stations

Station Location Temp. Windchill Dew Point Humidity Wind Precip. Elev Updated Type
                   

Watches & Warnings

There are currently no watches in effect.